Cedar Park's Hourly Summary for Friday, April 14, 2017
Hour Temp
(f)
RH
(%)
Solar Rad.
(MJ/m2)
Rainfall
(in)
Wind
(mph)
4/14/2017 12:00 AM 67 68 0 0 5.57
4/14/2017 1:00 AM 66 76 0 0 5.91
4/14/2017 2:00 AM 65 89 0 0 4.05
4/14/2017 3:00 AM 64 99 0 0 3.76
4/14/2017 4:00 AM 64 100 0 0 3.16
4/14/2017 5:00 AM 64 100 0 0 3.48
4/14/2017 6:00 AM 64 100 0 0 4.59
4/14/2017 7:00 AM 64 100 0 0 2.35
4/14/2017 8:00 AM 64 100 0.07 0 2.93
4/14/2017 9:00 AM 64 100 0.26 0 3.53
4/14/2017 10:00 AM 65 99 0.46 0 4.92
4/14/2017 11:00 AM 67 83 1.61 0 5.75
4/14/2017 12:00 PM 70 65 1.84 0 5.71
4/14/2017 1:00 PM 72 62 2.79 0 6.64
4/14/2017 2:00 PM 74 53 2.16 0 5.49
4/14/2017 3:00 PM 75 48 2.31 0 5.71
4/14/2017 4:00 PM 76 44 2.15 0 6.18
4/14/2017 5:00 PM 77 43 2.35 0 5.83
4/14/2017 6:00 PM 77 43 1.12 0 5.46
4/14/2017 7:00 PM 77 41 0.17 0 5.39
4/14/2017 8:00 PM 75 46 0.07 0 3.49
4/14/2017 9:00 PM 71 55 0 0 0.32
4/14/2017 10:00 PM 69 63 0 0 0.92
4/14/2017 11:00 PM 69 67 0 0 4.26
Data Summary 69 72 17.36 0.00 4.39